Time;durP1;ratioP1;P1;durP2;ratioP2;P2;SDS_P1;SDS_P2;PMS_P1;PMS_P2;Temp;Humidity;BMP_temperature;BMP_pressure;BME280_temperature;BME280_humidity;BME280_pressure;Samples;Min_cycle;Max_cycle;Signal;HPM_P1;HPM_P2
2023/02/15 00:01:19;;;;;;;64.80;30.27;;;5.50;99.90;;;;;;4980307;28;20034;-71
2023/02/15 00:03:47;;;;;;;64.22;29.15;;;5.50;99.90;;;;;;4993627;28;20026;-72
2023/02/15 00:06:12;;;;;;;63.45;30.80;;;5.50;99.90;;;;;;4995395;28;20139;-72
2023/02/15 00:08:38;;;;;;;66.05;28.83;;;5.50;99.90;;;;;;4976929;28;20505;-72
2023/02/15 00:11:09;;;;;;;67.93;31.10;;;5.50;99.90;;;;;;4993241;28;20030;-71
2023/02/15 00:13:35;;;;;;;73.50;30.17;;;5.50;99.90;;;;;;4979615;28;20030;-71
2023/02/15 00:16:12;;;;;;;61.75;28.77;;;5.50;99.90;;;;;;4994596;28;20053;-72
2023/02/15 00:18:39;;;;;;;63.60;30.65;;;5.50;99.90;;;;;;4992614;28;20149;-71
2023/02/15 00:21:09;;;;;;;70.00;32.28;;;5.50;99.90;;;;;;5000227;28;20628;-72
2023/02/15 00:23:36;;;;;;;70.10;30.90;;;5.50;99.90;;;;;;4981999;28;20084;-72
2023/02/15 00:26:10;;;;;;;64.65;30.08;;;5.50;99.90;;;;;;4983503;28;20113;-71
2023/02/15 00:28:37;;;;;;;63.40;30.10;;;5.50;99.90;;;;;;4993230;28;20041;-72
2023/02/15 00:31:07;;;;;;;73.07;31.85;;;5.50;99.90;;;;;;4998262;28;20125;-72
2023/02/15 00:33:34;;;;;;;73.80;32.72;;;5.40;99.90;;;;;;4999045;28;20057;-72
2023/02/15 00:36:01;;;;;;;64.50;30.15;;;5.40;99.90;;;;;;4999777;28;20445;-72
2023/02/15 00:38:28;;;;;;;74.65;31.45;;;5.40;99.90;;;;;;4980454;28;20082;-72
2023/02/15 00:40:55;;;;;;;68.18;31.63;;;5.50;99.90;;;;;;4998030;28;20026;-72
2023/02/15 00:43:20;;;;;;;69.15;32.38;;;5.50;99.90;;;;;;4979819;28;20061;-72
2023/02/15 00:45:46;;;;;;;67.72;30.17;;;5.50;99.90;;;;;;4997411;28;20030;-72
2023/02/15 00:48:12;;;;;;;68.28;29.98;;;5.50;99.90;;;;;;4977812;28;20107;-73
2023/02/15 00:50:37;;;;;;;65.15;29.08;;;5.50;99.90;;;;;;4979388;28;20133;-72
2023/02/15 00:53:03;;;;;;;70.68;29.95;;;5.50;99.90;;;;;;4982573;28;20057;-72
2023/02/15 00:55:29;;;;;;;70.20;31.75;;;5.40;99.90;;;;;;4983778;28;20520;-72
2023/02/15 00:57:54;;;;;;;67.55;30.92;;;5.40;99.90;;;;;;4996186;28;20037;-72
2023/02/15 01:00:20;;;;;;;76.32;31.98;;;5.40;99.90;;;;;;4992008;28;20383;-72
2023/02/15 01:02:46;;;;;;;68.10;30.98;;;5.40;99.90;;;;;;4995378;28;20026;-72
2023/02/15 01:05:12;;;;;;;68.55;32.20;;;5.50;99.90;;;;;;4978340;28;20030;-72
2023/02/15 01:07:38;;;;;;;71.47;30.60;;;5.50;99.90;;;;;;4996034;28;20121;-71
2023/02/15 01:10:06;;;;;;;78.15;32.25;;;5.40;99.90;;;;;;4979670;28;20134;-72
2023/02/15 01:12:32;;;;;;;62.17;31.17;;;5.40;99.90;;;;;;5001694;28;20026;-72
2023/02/15 01:14:57;;;;;;;72.00;32.35;;;5.40;99.90;;;;;;5006856;28;20413;-72
2023/02/15 01:17:23;;;;;;;66.18;30.58;;;5.40;99.90;;;;;;4976289;28;20027;-72
2023/02/15 01:19:49;;;;;;;67.07;30.15;;;5.40;99.90;;;;;;4981368;28;20038;-72
2023/02/15 01:22:14;;;;;;;65.18;29.58;;;5.40;99.90;;;;;;4981455;28;20034;-73
2023/02/15 01:24:40;;;;;;;70.85;32.08;;;5.40;99.90;;;;;;4997442;28;20438;-72
2023/02/15 01:27:06;;;;;;;57.88;28.65;;;5.40;99.90;;;;;;4993996;28;20058;-72
2023/02/15 01:29:32;;;;;;;64.28;28.58;;;5.40;99.90;;;;;;4979688;28;20037;-72
2023/02/15 01:31:57;;;;;;;68.10;30.27;;;5.40;99.90;;;;;;4994417;28;20026;-71
2023/02/15 01:34:23;;;;;;;64.65;30.98;;;5.40;99.90;;;;;;4979367;28;20037;-72
2023/02/15 01:36:49;;;;;;;59.08;29.50;;;5.40;99.90;;;;;;4980071;28;20037;-72
2023/02/15 01:39:14;;;;;;;67.82;30.42;;;5.40;99.90;;;;;;4996422;28;20030;-72
2023/02/15 01:41:41;;;;;;;65.55;30.60;;;5.40;99.90;;;;;;4995109;28;20482;-72
2023/02/15 01:44:45;;;;;;;66.63;29.75;;;5.40;99.90;;;;;;4985777;28;20038;-72
2023/02/15 01:47:15;;;;;;;73.53;30.90;;;5.40;99.90;;;;;;4990343;28;20042;-72
2023/02/15 01:49:43;;;;;;;77.47;30.88;;;5.30;99.90;;;;;;4978072;28;20027;-72
2023/02/15 01:52:12;;;;;;;67.13;31.08;;;5.40;99.90;;;;;;4979526;28;20036;-72
2023/02/15 01:54:39;;;;;;;59.90;28.05;;;5.40;99.90;;;;;;4979452;28;20035;-72
2023/02/15 01:57:10;;;;;;;69.80;31.27;;;5.40;99.90;;;;;;4994606;28;20095;-71
2023/02/15 01:59:39;;;;;;;60.08;28.92;;;5.40;99.90;;;;;;5000017;28;20141;-72
2023/02/15 02:02:09;;;;;;;60.30;28.55;;;5.40;99.90;;;;;;4978210;28;20034;-72
2023/02/15 02:04:52;;;;;;;61.63;29.55;;;5.40;99.90;;;;;;4977851;28;20038;-72
2023/02/15 02:07:26;;;;;;;61.33;28.20;;;5.40;99.90;;;;;;4995072;28;20030;-72
2023/02/15 02:09:52;;;;;;;64.70;29.50;;;5.30;99.90;;;;;;4978540;28;20045;-72
2023/02/15 02:12:19;;;;;;;62.50;28.55;;;5.30;99.90;;;;;;4978173;28;20014;-72
2023/02/15 02:14:47;;;;;;;63.83;29.35;;;5.40;99.90;;;;;;4994372;28;20030;-71
2023/02/15 02:17:54;;;;;;;70.28;29.75;;;5.40;99.90;;;;;;4995987;28;20057;-71
2023/02/15 02:20:43;;;;;;;60.85;28.75;;;5.40;99.90;;;;;;4945318;28;20053;-72
2023/02/15 02:23:44;;;;;;;67.45;29.80;;;5.40;99.90;;;;;;4979703;28;20408;-72
2023/02/15 02:26:31;;;;;;;60.70;28.65;;;5.30;99.90;;;;;;4895054;29;20039;-71
2023/02/15 02:29:45;;;;;;;78.75;30.65;;;5.30;99.90;;;;;;4929857;29;20036;-71
2023/02/15 02:32:44;;;;;;;65.95;28.73;;;5.30;99.90;;;;;;4930497;29;20396;-72
2023/02/15 02:35:17;;;;;;;58.35;28.52;;;5.30;99.90;;;;;;4924636;29;20062;-72
2023/02/15 02:38:09;;;;;;;66.20;31.20;;;5.30;99.90;;;;;;4924015;29;20047;-71
2023/02/15 02:40:47;;;;;;;65.22;29.25;;;5.30;99.90;;;;;;4926038;29;21074;-70
2023/02/15 02:43:42;;;;;;;86.03;30.00;;;5.30;99.90;;;;;;4924071;29;20047;-71
2023/02/15 02:46:20;;;;;;;65.45;29.77;;;5.30;99.90;;;;;;4925676;29;20099;-72
2023/02/15 02:48:46;;;;;;;64.75;28.15;;;5.20;99.90;;;;;;4929769;29;20095;-71
2023/02/15 02:51:13;;;;;;;68.60;29.60;;;5.30;99.90;;;;;;4926380;29;20051;-72
2023/02/15 02:53:40;;;;;;;96.03;29.60;;;5.30;99.90;;;;;;4911552;29;20055;-71
2023/02/15 02:56:05;;;;;;;66.90;30.30;;;5.20;99.90;;;;;;4925107;28;20040;-71
2023/02/15 02:58:41;;;;;;;89.88;29.10;;;5.20;99.90;;;;;;4908641;29;20042;-71
2023/02/15 03:01:23;;;;;;;62.80;28.88;;;5.20;99.90;;;;;;4909661;29;20028;-71
2023/02/15 03:03:55;;;;;;;56.28;27.42;;;5.20;99.90;;;;;;4995207;28;20100;-71
2023/02/15 03:06:40;;;;;;;64.80;29.45;;;5.20;99.90;;;;;;4982462;28;20057;-71
2023/02/15 03:09:17;;;;;;;67.15;30.48;;;5.20;99.90;;;;;;4995333;28;20038;-72
2023/02/15 03:11:44;;;;;;;67.05;29.65;;;5.20;99.90;;;;;;4974840;28;20125;-70
2023/02/15 03:14:11;;;;;;;60.72;27.77;;;5.20;99.90;;;;;;4994987;28;20026;-72
2023/02/15 03:16:40;;;;;;;64.03;29.20;;;5.20;99.90;;;;;;4974582;28;20022;-70
2023/02/15 03:19:17;;;;;;;59.42;29.15;;;5.20;99.90;;;;;;4976697;28;20026;-71
2023/02/15 03:22:09;;;;;;;65.40;29.45;;;5.20;99.90;;;;;;4976957;28;20034;-69
2023/02/15 03:24:36;;;;;;;67.90;28.48;;;5.10;99.90;;;;;;4979054;28;20030;-72
2023/02/15 03:27:06;;;;;;;68.97;28.75;;;5.10;99.90;;;;;;4975218;28;20105;-72
2023/02/15 03:29:33;;;;;;;62.72;27.60;;;5.10;99.90;;;;;;4975884;28;20026;-71
2023/02/15 03:32:03;;;;;;;59.78;27.95;;;5.20;99.90;;;;;;4991026;28;20062;-72
2023/02/15 03:34:29;;;;;;;67.70;28.58;;;5.20;99.90;;;;;;4996674;28;20080;-72
2023/02/15 03:37:08;;;;;;;66.38;28.50;;;5.20;99.90;;;;;;4996870;28;20041;-70
2023/02/15 03:39:47;;;;;;;60.30;28.67;;;5.20;99.90;;;;;;4996103;28;20034;-71
2023/02/15 03:42:32;;;;;;;59.33;27.73;;;5.20;99.90;;;;;;4974960;28;20030;-69
2023/02/15 03:45:11;;;;;;;57.85;27.13;;;5.10;99.90;;;;;;4990561;28;20398;-71
2023/02/15 03:47:41;;;;;;;68.10;28.85;;;5.10;99.90;;;;;;4977837;28;20018;-71
2023/02/15 03:53:09;;;;;;;61.92;27.52;;;5.10;99.90;;;;;;4978017;28;20030;-70
2023/02/15 03:55:35;;;;;;;60.28;27.77;;;5.10;99.90;;;;;;4981470;28;20040;-71
2023/02/15 04:03:53;;;;;;;64.85;28.15;;;5.10;99.90;;;;;;4998419;28;20030;-71
2023/02/15 04:06:18;;;;;;;61.53;28.65;;;5.10;99.90;;;;;;4982019;28;20088;-71
2023/02/15 04:11:29;;;;;;;63.95;30.48;;;5.10;99.90;;;;;;4983512;28;20026;-71
2023/02/15 04:13:56;;;;;;;64.10;28.73;;;5.10;99.90;;;;;;4980710;28;20041;-71
2023/02/15 04:16:25;;;;;;;68.00;29.33;;;5.10;99.90;;;;;;4983360;28;20042;-71
2023/02/15 04:27:05;;;;;;;57.45;28.35;;;5.10;99.90;;;;;;5000368;28;20034;-71
2023/02/15 04:29:31;;;;;;;63.85;27.75;;;5.10;99.90;;;;;;4983078;28;20027;-71
2023/02/15 04:32:01;;;;;;;61.33;27.77;;;5.00;99.90;;;;;;4998422;28;20026;-71
2023/02/15 04:34:27;;;;;;;61.33;27.50;;;5.00;99.90;;;;;;4964529;28;20568;-71
2023/02/15 04:36:53;;;;;;;55.72;27.15;;;5.00;99.90;;;;;;4995563;28;20034;-70
2023/02/15 04:39:19;;;;;;;64.18;28.33;;;5.00;99.90;;;;;;4998358;28;20041;-71
2023/02/15 04:41:45;;;;;;;57.67;27.83;;;5.00;99.90;;;;;;5006669;28;20030;-71
2023/02/15 04:44:11;;;;;;;62.08;28.85;;;5.00;99.90;;;;;;4983160;28;20056;-71
2023/02/15 04:46:37;;;;;;;64.28;28.60;;;5.00;99.90;;;;;;4994059;28;20030;-71
2023/02/15 04:49:02;;;;;;;64.93;27.65;;;5.00;99.90;;;;;;5005117;28;20038;-71
2023/02/15 04:51:29;;;;;;;60.92;26.83;;;4.90;99.90;;;;;;4978508;28;20711;-70
2023/02/15 04:53:56;;;;;;;53.20;26.88;;;4.90;99.90;;;;;;4979640;28;20097;-69
2023/02/15 04:56:22;;;;;;;59.78;27.13;;;4.90;99.90;;;;;;4996042;28;20058;-70
2023/02/15 04:58:48;;;;;;;64.22;27.73;;;4.90;99.90;;;;;;4980640;28;20057;-71
2023/02/15 05:01:14;;;;;;;58.67;26.88;;;4.90;99.90;;;;;;5001056;28;20623;-70
2023/02/15 05:03:40;;;;;;;54.47;25.98;;;4.90;99.90;;;;;;4994399;28;20038;-70
2023/02/15 05:06:06;;;;;;;59.20;27.17;;;4.80;99.90;;;;;;4977312;28;20026;-71
2023/02/15 05:08:32;;;;;;;58.65;26.90;;;4.80;99.90;;;;;;4980922;28;20548;-71
2023/02/15 05:10:58;;;;;;;56.22;26.30;;;4.80;99.90;;;;;;4999931;28;20032;-71
2023/02/15 05:13:24;;;;;;;65.47;26.00;;;4.80;99.90;;;;;;4988394;28;20027;-71
2023/02/15 05:15:52;;;;;;;59.55;27.88;;;4.70;99.90;;;;;;4984152;28;20032;-73
2023/02/15 05:18:20;;;;;;;49.42;24.55;;;4.70;99.90;;;;;;4982857;28;20061;-71
2023/02/15 05:20:46;;;;;;;56.38;23.98;;;4.70;99.90;;;;;;4989800;28;20026;-69
2023/02/15 05:23:12;;;;;;;64.88;24.50;;;4.70;99.90;;;;;;4983052;28;20122;-72
2023/02/15 05:28:25;;;;;;;55.70;24.73;;;4.70;99.90;;;;;;4998040;28;20064;-72
2023/02/15 05:31:02;;;;;;;52.67;24.95;;;4.70;99.90;;;;;;4977591;28;20114;-73
2023/02/15 05:33:28;;;;;;;63.25;24.77;;;4.70;99.90;;;;;;4978042;28;20033;-70
2023/02/15 05:35:53;;;;;;;46.10;23.05;;;4.70;99.90;;;;;;4979229;28;20389;-73
2023/02/15 05:38:19;;;;;;;49.10;23.88;;;4.70;99.90;;;;;;4989599;28;20034;-72
2023/02/15 05:40:45;;;;;;;50.25;24.67;;;4.70;99.90;;;;;;4977569;28;20034;-71
2023/02/15 05:43:11;;;;;;;52.03;24.27;;;4.70;99.90;;;;;;4991920;28;20137;-73
2023/02/15 05:45:36;;;;;;;46.65;23.60;;;4.70;99.90;;;;;;4972407;28;20037;-73
2023/02/15 05:48:02;;;;;;;48.85;23.80;;;4.70;99.90;;;;;;4989814;28;20482;-70
2023/02/15 05:50:28;;;;;;;49.33;24.00;;;4.60;99.90;;;;;;4974636;28;20040;-73
2023/02/15 05:52:54;;;;;;;59.92;23.38;;;4.60;99.90;;;;;;4992775;28;20038;-72
2023/02/15 05:55:19;;;;;;;56.22;25.10;;;4.50;99.90;;;;;;4958860;28;20038;-73
2023/02/15 05:57:46;;;;;;;48.50;24.58;;;4.50;99.90;;;;;;4971022;28;20038;-72
2023/02/15 06:00:13;;;;;;;51.30;25.13;;;4.50;99.90;;;;;;4993791;28;20129;-72
2023/02/15 06:02:39;;;;;;;47.60;23.67;;;4.50;99.90;;;;;;4971864;28;20034;-72
2023/02/15 06:05:06;;;;;;;51.78;25.00;;;4.50;99.90;;;;;;4992884;28;20109;-75
2023/02/15 06:07:32;;;;;;;56.88;25.98;;;4.50;99.90;;;;;;4983682;28;20026;-72
2023/02/15 06:09:58;;;;;;;54.60;26.35;;;4.50;99.90;;;;;;4975259;28;20522;-71
2023/02/15 06:12:24;;;;;;;50.17;26.42;;;4.50;99.90;;;;;;4958670;28;20031;-71
2023/02/15 06:14:50;;;;;;;49.20;23.63;;;4.50;99.90;;;;;;4967921;28;20069;-72
2023/02/15 06:17:16;;;;;;;55.13;25.33;;;4.60;99.90;;;;;;4991764;28;20042;-72
2023/02/15 06:19:42;;;;;;;52.92;24.10;;;4.60;99.90;;;;;;4987179;28;21272;-70
2023/02/15 06:22:08;;;;;;;54.58;25.23;;;4.60;99.90;;;;;;4977192;28;20040;-72
2023/02/15 06:24:34;;;;;;;52.53;24.33;;;4.60;99.90;;;;;;4993404;28;20038;-72
2023/02/15 06:27:00;;;;;;;48.33;24.52;;;4.60;99.90;;;;;;4950087;28;20045;-73
2023/02/15 06:29:26;;;;;;;50.15;24.15;;;4.60;99.90;;;;;;4990916;28;20032;-73
2023/02/15 06:31:51;;;;;;;50.15;23.92;;;4.60;99.90;;;;;;4968385;28;20058;-73
2023/02/15 06:34:17;;;;;;;57.70;26.38;;;4.50;99.90;;;;;;4994013;28;20137;-70
2023/02/15 06:36:43;;;;;;;51.80;24.13;;;4.60;99.90;;;;;;4961556;28;20057;-73
2023/02/15 06:39:08;;;;;;;53.13;25.80;;;4.60;99.90;;;;;;4958291;28;20046;-70
2023/02/15 06:41:35;;;;;;;51.92;24.65;;;4.60;99.90;;;;;;4990353;28;20053;-71
2023/02/15 06:44:01;;;;;;;63.35;25.92;;;4.50;99.90;;;;;;4969557;28;20027;-72
2023/02/15 06:46:27;;;;;;;61.63;26.42;;;4.50;99.90;;;;;;4977472;28;20540;-70
2023/02/15 06:48:52;;;;;;;53.78;24.38;;;4.50;99.90;;;;;;4990398;28;20403;-71
2023/02/15 06:51:18;;;;;;;56.53;26.08;;;4.60;99.90;;;;;;4991880;28;20628;-72
2023/02/15 06:53:44;;;;;;;49.17;24.67;;;4.60;99.90;;;;;;4995338;28;20032;-71
2023/02/15 06:56:10;;;;;;;48.53;23.65;;;4.50;99.90;;;;;;4974835;28;20038;-71
2023/02/15 06:58:37;;;;;;;48.58;24.05;;;4.50;99.90;;;;;;4963167;28;20038;-70
2023/02/15 07:01:03;;;;;;;48.63;23.73;;;4.50;99.90;;;;;;4968648;28;20902;-71
2023/02/15 07:03:30;;;;;;;51.53;25.75;;;4.50;99.90;;;;;;4993155;28;20030;-71
2023/02/15 07:06:00;;;;;;;56.20;26.10;;;4.50;99.90;;;;;;4995030;28;20061;-72
2023/02/15 07:08:27;;;;;;;53.95;25.40;;;4.50;99.90;;;;;;4992192;28;20030;-71
2023/02/15 07:10:54;;;;;;;50.67;24.48;;;4.40;99.90;;;;;;4994363;28;20057;-71
2023/02/15 07:13:20;;;;;;;54.05;24.90;;;4.40;99.90;;;;;;5001135;28;20030;-72
2023/02/15 07:15:48;;;;;;;54.67;26.02;;;4.40;99.90;;;;;;4992037;28;20065;-72
2023/02/15 07:18:14;;;;;;;52.05;25.83;;;4.40;99.90;;;;;;4977128;28;20038;-72
2023/02/15 07:20:41;;;;;;;63.15;24.80;;;4.50;99.90;;;;;;4975337;28;20404;-72
2023/02/15 07:23:07;;;;;;;64.38;25.60;;;4.40;99.90;;;;;;4974247;28;20381;-72
2023/02/15 07:25:34;;;;;;;59.25;26.23;;;4.40;99.90;;;;;;4991061;28;20045;-73
2023/02/15 07:28:02;;;;;;;58.17;25.35;;;4.40;99.90;;;;;;4972036;28;20105;-71
2023/02/15 07:30:29;;;;;;;57.08;25.30;;;4.40;99.90;;;;;;4958122;28;20100;-70
2023/02/15 07:35:51;;;;;;;58.78;24.42;;;4.40;99.90;;;;;;4991470;28;20371;-70
2023/02/15 07:38:18;;;;;;;51.72;24.58;;;4.40;99.90;;;;;;4995072;28;20045;-71
2023/02/15 07:40:44;;;;;;;50.10;23.15;;;4.40;99.90;;;;;;4994126;28;20033;-72
2023/02/15 07:43:11;;;;;;;50.80;23.35;;;4.40;99.90;;;;;;4993314;28;20034;-70
2023/02/15 07:45:37;;;;;;;49.20;23.70;;;4.40;99.90;;;;;;4982574;28;20031;-71
2023/02/15 07:48:04;;;;;;;49.03;23.95;;;4.30;99.90;;;;;;4996928;28;20034;-73
2023/02/15 07:50:31;;;;;;;55.67;24.70;;;4.30;99.90;;;;;;4985915;28;20099;-72
2023/02/15 07:52:57;;;;;;;47.40;24.45;;;4.30;99.90;;;;;;4974786;28;20102;-71
2023/02/15 07:55:22;;;;;;;51.38;24.95;;;4.30;99.90;;;;;;4997253;28;20165;-72
2023/02/15 07:57:49;;;;;;;46.92;23.52;;;4.30;99.90;;;;;;4974284;28;20046;-71
2023/02/15 08:00:23;;;;;;;47.38;23.05;;;4.30;99.90;;;;;;4972276;28;20517;-71
2023/02/15 08:03:12;;;;;;;48.72;25.33;;;4.40;99.90;;;;;;4952999;28;20038;-71
2023/02/15 08:05:44;;;;;;;51.25;25.10;;;4.30;99.90;;;;;;4992586;28;20265;-70
2023/02/15 08:08:29;;;;;;;;;;;4.30;99.90;;;;;;4973749;28;20038;-71
2023/02/15 08:11:26;;;;;;;57.75;22.73;;;4.40;99.90;;;;;;4972856;28;19921;-72
2023/02/15 08:14:07;;;;;;;49.75;23.90;;;4.30;99.90;;;;;;4960188;28;20112;-71
2023/02/15 08:16:34;;;;;;;53.25;24.02;;;4.30;99.90;;;;;;4953496;28;20093;-71
2023/02/15 08:19:09;;;;;;;53.50;24.88;;;4.20;99.90;;;;;;4975909;28;20092;-72
2023/02/15 08:21:38;;;;;;;56.20;25.90;;;4.20;99.90;;;;;;4978878;28;20038;-71
2023/02/15 08:24:05;;;;;;;55.25;26.60;;;4.20;99.90;;;;;;4974875;28;20034;-72
2023/02/15 08:26:32;;;;;;;51.42;25.20;;;4.20;99.90;;;;;;4993485;28;20412;-70
2023/02/15 08:28:58;;;;;;;55.53;25.10;;;4.20;99.90;;;;;;4975431;28;20065;-70
2023/02/15 08:31:25;;;;;;;53.35;26.48;;;4.30;99.90;;;;;;4969498;28;20026;-70
2023/02/15 08:33:52;;;;;;;53.55;24.95;;;4.30;99.90;;;;;;4982114;28;20037;-70
2023/02/15 08:36:21;;;;;;;49.50;23.85;;;4.30;99.90;;;;;;4966158;28;20022;-71
2023/02/15 08:38:47;;;;;;;48.72;25.50;;;4.30;99.90;;;;;;4973320;28;20080;-73
2023/02/15 08:41:24;;;;;;;54.35;24.38;;;4.30;99.90;;;;;;4979210;28;20034;-70
2023/02/15 08:43:53;;;;;;;49.58;23.98;;;4.40;99.90;;;;;;4979559;28;20391;-71
2023/02/15 08:46:20;;;;;;;55.33;25.38;;;4.30;99.90;;;;;;4972811;28;20610;-71
2023/02/15 08:48:46;;;;;;;52.20;24.65;;;4.30;99.90;;;;;;4969036;28;20018;-69
2023/02/15 08:51:23;;;;;;;54.97;24.35;;;4.30;99.90;;;;;;4976271;28;20046;-70
2023/02/15 08:53:53;;;;;;;53.65;25.23;;;4.30;99.90;;;;;;4982703;28;20620;-73
2023/02/15 08:56:21;;;;;;;51.22;24.65;;;4.30;99.90;;;;;;4976976;28;20375;-72
2023/02/15 08:58:46;;;;;;;53.13;25.30;;;4.30;99.90;;;;;;4996181;28;20548;-71
2023/02/15 09:01:18;;;;;;;47.70;23.75;;;4.20;99.90;;;;;;4975408;28;20033;-71
2023/02/15 09:03:46;;;;;;;52.47;24.65;;;4.20;99.90;;;;;;4990091;28;20073;-72
2023/02/15 09:06:12;;;;;;;56.45;27.10;;;4.20;99.90;;;;;;4974794;28;20493;-72
2023/02/15 09:08:38;;;;;;;56.70;26.02;;;4.30;99.90;;;;;;4991511;28;20066;-72
2023/02/15 09:11:12;;;;;;;49.40;24.38;;;4.30;99.90;;;;;;4999401;28;20034;-71
2023/02/15 09:13:39;;;;;;;51.78;23.88;;;4.30;99.90;;;;;;5001304;28;20461;-71
2023/02/15 09:16:08;;;;;;;49.20;24.17;;;4.30;99.90;;;;;;4977196;28;20049;-72
2023/02/15 09:18:37;;;;;;;55.78;25.20;;;4.30;99.90;;;;;;4971767;28;20041;-71
2023/02/15 09:21:07;;;;;;;48.42;24.45;;;4.30;99.90;;;;;;4978147;28;20061;-71
2023/02/15 09:23:33;;;;;;;50.65;24.35;;;4.40;99.90;;;;;;4959185;28;20081;-70
2023/02/15 09:26:06;;;;;;;50.85;24.30;;;4.40;99.90;;;;;;4992071;28;20042;-71
2023/02/15 09:28:34;;;;;;;58.20;25.38;;;4.50;99.90;;;;;;4990265;28;20028;-71
2023/02/15 09:31:08;;;;;;;49.42;24.35;;;4.50;99.90;;;;;;4973510;28;20584;-69
2023/02/15 09:33:35;;;;;;;49.42;24.65;;;4.50;99.90;;;;;;4990929;28;20718;-72
2023/02/15 09:36:02;;;;;;;49.15;23.45;;;4.40;99.90;;;;;;4956388;28;20509;-71
2023/02/15 09:38:27;;;;;;;47.30;24.80;;;4.50;99.90;;;;;;4976339;28;20030;-71
2023/02/15 09:41:16;;;;;;;55.88;25.35;;;4.50;99.90;;;;;;4975624;28;20036;-71
2023/02/15 09:44:23;;;;;;;45.85;23.63;;;4.50;99.90;;;;;;4977568;28;20361;-71
2023/02/15 09:47:16;;;;;;;53.60;24.13;;;4.60;99.90;;;;;;4930881;29;20580;-70
2023/02/15 09:50:03;;;;;;;49.13;24.42;;;4.50;99.90;;;;;;4995521;28;20097;-70
2023/02/15 09:53:00;;;;;;;61.10;24.65;;;4.60;99.90;;;;;;4979232;28;20031;-71
2023/02/15 09:55:32;;;;;;;48.90;25.00;;;4.50;99.90;;;;;;4977716;28;20108;-72
2023/02/15 09:58:16;;;;;;;51.17;23.88;;;4.60;99.90;;;;;;4996109;28;20022;-73
2023/02/15 10:00:58;;;;;;;51.38;25.40;;;4.50;99.90;;;;;;4993839;28;20018;-72
2023/02/15 10:03:44;;;;;;;47.83;24.33;;;4.60;99.90;;;;;;4979325;28;20390;-72
2023/02/15 10:06:24;;;;;;;54.13;24.45;;;4.70;99.90;;;;;;4996431;28;20544;-72
2023/02/15 10:08:53;;;;;;;59.72;25.95;;;4.70;99.90;;;;;;4979858;28;20034;-71
2023/02/15 10:11:40;;;;;;;55.35;26.33;;;4.60;99.90;;;;;;4993897;28;20081;-72
2023/02/15 10:14:11;;;;;;;56.97;27.17;;;4.60;99.90;;;;;;4991562;28;20030;-73
2023/02/15 10:16:46;;;;;;;51.28;26.15;;;4.50;99.90;;;;;;4976369;28;20030;-72
2023/02/15 10:19:40;;;;;;;55.05;26.83;;;4.50;99.90;;;;;;4995647;28;20242;-73
2023/02/15 10:22:24;;;;;;;56.72;26.70;;;4.60;99.90;;;;;;4952200;28;20541;-72
2023/02/15 10:25:11;;;;;;;57.08;25.95;;;4.50;99.90;;;;;;4996496;28;20224;-72
2023/02/15 10:27:45;;;;;;;53.63;26.40;;;4.50;99.90;;;;;;4994151;28;20088;-72
2023/02/15 10:30:15;;;;;;;58.35;27.33;;;4.60;99.90;;;;;;4979230;28;20049;-71
2023/02/15 10:33:01;;;;;;;53.97;26.35;;;4.70;99.90;;;;;;4988133;28;20033;-71
2023/02/15 10:35:36;;;;;;;55.40;26.98;;;4.80;99.90;;;;;;4996881;28;20041;-72
2023/02/15 10:38:20;;;;;;;54.58;28.50;;;4.80;99.90;;;;;;4998407;28;20030;-71
2023/02/15 10:41:04;;;;;;;53.80;27.88;;;4.70;99.90;;;;;;4998176;28;20482;-71
2023/02/15 10:43:55;;;;;;;59.92;28.45;;;4.80;99.90;;;;;;4994786;28;20032;-71
2023/02/15 10:46:32;;;;;;;58.80;29.02;;;4.90;99.90;;;;;;4982845;28;20030;-71
2023/02/15 10:49:19;;;;;;;58.90;29.15;;;5.00;99.90;;;;;;4983775;28;20019;-70
2023/02/15 10:52:16;;;;;;;60.95;28.55;;;5.10;99.90;;;;;;4994768;28;20096;-71
2023/02/15 10:55:03;;;;;;;55.35;26.63;;;5.20;99.90;;;;;;4978637;28;20030;-72
2023/02/15 10:57:53;;;;;;;59.70;30.08;;;5.30;99.90;;;;;;4979425;28;20114;-71
2023/02/15 11:00:23;;;;;;;63.88;31.13;;;5.30;99.90;;;;;;5001508;28;20034;-70
2023/02/15 11:03:22;;;;;;;55.40;28.77;;;5.40;99.90;;;;;;4978724;28;21245;-72
2023/02/15 11:06:12;;;;;;;61.15;31.70;;;5.60;99.90;;;;;;4982080;28;20026;-72
2023/02/15 11:08:51;;;;;;;54.00;28.25;;;5.80;99.90;;;;;;4981738;28;20437;-71
2023/02/15 11:11:28;;;;;;;55.50;29.17;;;5.90;99.90;;;;;;4976837;28;20031;-70
2023/02/15 11:14:00;;;;;;;55.90;29.23;;;6.00;99.90;;;;;;4995751;28;20042;-72
2023/02/15 11:16:31;;;;;;;54.20;28.35;;;6.00;99.90;;;;;;4992861;28;20129;-72
2023/02/15 11:19:03;;;;;;;60.03;31.33;;;5.80;99.90;;;;;;4962493;28;20498;-71
2023/02/15 11:21:38;;;;;;;62.47;31.77;;;5.80;99.90;;;;;;4996939;28;20042;-70
2023/02/15 11:24:15;;;;;;;62.90;31.83;;;5.90;99.90;;;;;;4994858;28;20037;-73
2023/02/15 11:26:46;;;;;;;63.13;31.75;;;5.90;99.90;;;;;;4978922;28;20040;-72
2023/02/15 11:29:26;;;;;;;64.70;31.60;;;5.90;99.90;;;;;;4979117;28;20387;-72
2023/02/15 11:32:17;;;;;;;60.72;32.00;;;6.10;99.90;;;;;;4959580;28;20540;-71
2023/02/15 11:35:02;;;;;;;;;;;6.10;99.90;;;;;;4961661;28;20049;-72
2023/02/15 11:37:46;;;;;;;64.90;33.03;;;5.90;99.90;;;;;;4978483;28;19921;-72
2023/02/15 11:40:26;;;;;;;59.33;33.55;;;5.80;99.90;;;;;;4961161;28;20370;-73
2023/02/15 11:42:56;;;;;;;55.83;30.98;;;6.10;99.90;;;;;;4992876;28;20026;-73
2023/02/15 11:45:31;;;;;;;59.38;32.55;;;6.10;99.90;;;;;;4979338;28;20031;-72
2023/02/15 11:47:58;;;;;;;63.70;32.55;;;6.10;99.90;;;;;;4977849;28;20030;-72
2023/02/15 11:50:27;;;;;;;60.97;32.38;;;6.10;99.90;;;;;;4980905;28;20609;-74
2023/02/15 11:53:03;;;;;;;59.17;31.45;;;6.00;99.90;;;;;;4997117;28;20088;-71
2023/02/15 11:55:29;;;;;;;53.53;30.25;;;6.00;99.90;;;;;;4981267;28;20109;-71
2023/02/15 11:58:11;;;;;;;57.63;30.77;;;6.00;99.90;;;;;;4993628;28;20080;-71
2023/02/15 12:00:44;;;;;;;58.42;31.95;;;6.00;99.90;;;;;;4996578;28;20425;-70
2023/02/15 12:03:21;;;;;;;61.90;32.33;;;6.00;99.90;;;;;;4992718;28;20143;-73
2023/02/15 12:05:54;;;;;;;54.15;30.65;;;6.10;99.90;;;;;;4978469;28;20057;-71
2023/02/15 12:08:22;;;;;;;54.65;29.30;;;6.10;99.90;;;;;;4960912;28;20030;-71
2023/02/15 12:10:58;;;;;;;59.35;32.75;;;6.10;99.90;;;;;;4993726;28;20521;-71
2023/02/15 12:13:24;;;;;;;54.80;30.20;;;6.10;99.90;;;;;;4963299;28;20034;-71
2023/02/15 12:15:53;;;;;;;54.33;30.02;;;6.10;99.90;;;;;;4993548;28;20275;-71
2023/02/15 12:18:38;;;;;;;58.35;30.23;;;6.20;99.90;;;;;;4998680;28;20033;-70
2023/02/15 12:21:14;;;;;;;61.38;31.98;;;6.10;99.90;;;;;;5003222;28;20030;-71
2023/02/15 12:23:52;;;;;;;56.45;31.73;;;5.90;99.90;;;;;;4981027;28;20034;-71
2023/02/15 12:26:30;;;;;;;55.80;30.25;;;6.00;99.90;;;;;;4982742;28;20049;-71
2023/02/15 12:29:01;;;;;;;54.95;29.92;;;6.00;99.90;;;;;;4995183;28;20090;-71
2023/02/15 12:31:39;;;;;;;55.65;30.13;;;5.90;99.90;;;;;;4998748;28;20533;-72
2023/02/15 12:34:15;;;;;;;49.88;28.95;;;6.00;99.90;;;;;;4982660;28;20034;-71
2023/02/15 12:36:54;;;;;;;55.42;30.70;;;6.00;99.90;;;;;;4983657;28;20030;-72
2023/02/15 12:39:28;;;;;;;58.25;29.95;;;6.10;99.90;;;;;;4978810;28;20042;-72
2023/02/15 12:41:54;;;;;;;54.67;30.48;;;6.20;99.90;;;;;;4981044;28;20455;-71
2023/02/15 12:44:34;;;;;;;49.90;29.10;;;6.20;99.90;;;;;;4997965;28;20074;-72
2023/02/15 12:47:02;;;;;;;57.05;30.55;;;6.20;99.90;;;;;;4980212;28;20040;-71
2023/02/15 12:49:36;;;;;;;52.97;30.42;;;6.30;99.90;;;;;;4995882;28;20426;-72
2023/02/15 12:52:26;;;;;;;53.22;30.27;;;6.30;99.90;;;;;;4999493;28;20450;-71
2023/02/15 12:54:52;;;;;;;54.38;30.08;;;6.40;99.90;;;;;;4976385;28;20042;-71
2023/02/15 12:57:28;;;;;;;50.90;29.35;;;6.40;99.90;;;;;;4965266;28;20033;-71
2023/02/15 13:00:06;;;;;;;47.58;27.95;;;6.50;99.90;;;;;;4978197;28;20034;-72
2023/02/15 13:02:43;;;;;;;50.88;27.58;;;6.60;99.90;;;;;;4981121;28;20034;-70
2023/02/15 13:05:31;;;;;;;72.60;38.17;;;6.70;99.90;;;;;;4966036;28;20046;-71
2023/02/15 13:08:14;;;;;;;53.33;30.30;;;7.30;99.90;;;;;;4979154;28;20029;-71
2023/02/15 13:11:04;;;;;;;45.53;27.83;;;7.10;99.90;;;;;;4983370;28;20026;-72
2023/02/15 13:13:54;;;;;;;103.53;52.53;;;7.10;99.90;;;;;;4979321;28;20026;-72
2023/02/15 13:16:27;;;;;;;834.10;544.95;;;7.50;99.90;;;;;;4981493;28;20505;-72
2023/02/15 13:18:53;;;;;;;1396.15;683.90;;;9.10;99.90;;;;;;4977185;28;20113;-72
2023/02/15 13:21:26;;;;;;;629.00;324.70;;;8.50;99.90;;;;;;4983186;28;20542;-72
2023/02/15 13:23:57;;;;;;;63.67;37.67;;;8.00;99.90;;;;;;4982158;28;20128;-72
2023/02/15 13:26:28;;;;;;;89.72;47.83;;;7.60;99.90;;;;;;4980577;28;20033;-70
2023/02/15 13:28:58;;;;;;;;;;;7.50;99.90;;;;;;4977936;28;20042;-72